sensor_id;sensor_type;location;lat;lon;timestamp;P1;durP1;ratioP1;P2;durP2;ratioP2
17261;SDS011;9873;52.236;21.002;2023-08-06T00:06:07;53.88;;;19.75;;
17261;SDS011;9873;52.236;21.002;2023-08-06T00:16:15;52.17;;;19.83;;
17261;SDS011;9873;52.236;21.002;2023-08-06T00:26:17;175.73;;;25.10;;
17261;SDS011;9873;52.236;21.002;2023-08-06T00:36:19;41.75;;;17.73;;
17261;SDS011;9873;52.236;21.002;2023-08-06T00:46:22;38.03;;;17.52;;
17261;SDS011;9873;52.236;21.002;2023-08-06T00:56:27;34.38;;;16.15;;
17261;SDS011;9873;52.236;21.002;2023-08-06T01:16:36;30.05;;;14.60;;
17261;SDS011;9873;52.236;21.002;2023-08-06T01:36:46;57.95;;;19.25;;
17261;SDS011;9873;52.236;21.002;2023-08-06T01:46:51;47.80;;;15.45;;
17261;SDS011;9873;52.236;21.002;2023-08-06T01:56:58;29.20;;;14.70;;
17261;SDS011;9873;52.236;21.002;2023-08-06T02:07:03;36.42;;;14.77;;
17261;SDS011;9873;52.236;21.002;2023-08-06T02:17:06;60.58;;;18.50;;
17261;SDS011;9873;52.236;21.002;2023-08-06T02:27:08;39.72;;;15.38;;
17261;SDS011;9873;52.236;21.002;2023-08-06T02:37:13;40.80;;;18.40;;
17261;SDS011;9873;52.236;21.002;2023-08-06T02:47:16;44.38;;;23.23;;
17261;SDS011;9873;52.236;21.002;2023-08-06T02:57:20;53.22;;;21.55;;
17261;SDS011;9873;52.236;21.002;2023-08-06T03:07:27;53.50;;;19.52;;
17261;SDS011;9873;52.236;21.002;2023-08-06T03:17:40;33.83;;;15.68;;
17261;SDS011;9873;52.236;21.002;2023-08-06T03:27:44;42.65;;;16.08;;
17261;SDS011;9873;52.236;21.002;2023-08-06T03:37:54;54.70;;;23.80;;
17261;SDS011;9873;52.236;21.002;2023-08-06T03:48:00;75.72;;;28.20;;
17261;SDS011;9873;52.236;21.002;2023-08-06T03:58:03;64.60;;;24.23;;
17261;SDS011;9873;52.236;21.002;2023-08-06T04:08:06;76.47;;;26.73;;
17261;SDS011;9873;52.236;21.002;2023-08-06T04:18:10;39.40;;;17.33;;
17261;SDS011;9873;52.236;21.002;2023-08-06T04:28:15;63.67;;;32.17;;
17261;SDS011;9873;52.236;21.002;2023-08-06T04:38:19;44.38;;;26.63;;
17261;SDS011;9873;52.236;21.002;2023-08-06T04:48:24;40.40;;;23.17;;
17261;SDS011;9873;52.236;21.002;2023-08-06T04:58:26;39.53;;;25.70;;
17261;SDS011;9873;52.236;21.002;2023-08-06T05:08:31;28.33;;;18.73;;
17261;SDS011;9873;52.236;21.002;2023-08-06T05:18:38;29.05;;;17.77;;
17261;SDS011;9873;52.236;21.002;2023-08-06T05:28:44;19.55;;;13.40;;
17261;SDS011;9873;52.236;21.002;2023-08-06T05:38:51;14.63;;;13.10;;
17261;SDS011;9873;52.236;21.002;2023-08-06T05:48:56;13.32;;;11.27;;
17261;SDS011;9873;52.236;21.002;2023-08-06T05:58:58;12.93;;;10.15;;
17261;SDS011;9873;52.236;21.002;2023-08-06T06:09:00;11.60;;;9.32;;
17261;SDS011;9873;52.236;21.002;2023-08-06T06:19:05;10.20;;;8.55;;
17261;SDS011;9873;52.236;21.002;2023-08-06T06:29:07;9.77;;;8.88;;
17261;SDS011;9873;52.236;21.002;2023-08-06T06:39:09;9.60;;;8.73;;
17261;SDS011;9873;52.236;21.002;2023-08-06T06:49:14;12.18;;;7.85;;
17261;SDS011;9873;52.236;21.002;2023-08-06T06:59:21;12.48;;;8.90;;
17261;SDS011;9873;52.236;21.002;2023-08-06T07:09:26;15.27;;;8.23;;
17261;SDS011;9873;52.236;21.002;2023-08-06T07:19:33;9.85;;;8.85;;
17261;SDS011;9873;52.236;21.002;2023-08-06T07:29:37;11.00;;;7.65;;
17261;SDS011;9873;52.236;21.002;2023-08-06T07:39:42;14.25;;;8.63;;
17261;SDS011;9873;52.236;21.002;2023-08-06T07:49:47;9.73;;;7.22;;
17261;SDS011;9873;52.236;21.002;2023-08-06T07:59:51;17.13;;;8.55;;
17261;SDS011;9873;52.236;21.002;2023-08-06T08:09:57;13.70;;;8.40;;
17261;SDS011;9873;52.236;21.002;2023-08-06T08:20:05;12.38;;;9.05;;
17261;SDS011;9873;52.236;21.002;2023-08-06T08:30:09;10.10;;;7.97;;
17261;SDS011;9873;52.236;21.002;2023-08-06T08:40:16;8.55;;;7.68;;
17261;SDS011;9873;52.236;21.002;2023-08-06T08:50:23;8.80;;;7.57;;
17261;SDS011;9873;52.236;21.002;2023-08-06T09:00:29;11.27;;;7.55;;
17261;SDS011;9873;52.236;21.002;2023-08-06T09:10:34;8.15;;;7.05;;
17261;SDS011;9873;52.236;21.002;2023-08-06T09:20:40;11.45;;;7.60;;
17261;SDS011;9873;52.236;21.002;2023-08-06T09:30:46;8.70;;;7.10;;
17261;SDS011;9873;52.236;21.002;2023-08-06T09:40:55;7.65;;;6.40;;
17261;SDS011;9873;52.236;21.002;2023-08-06T09:50:59;9.85;;;6.40;;
17261;SDS011;9873;52.236;21.002;2023-08-06T10:01:01;11.15;;;6.50;;
17261;SDS011;9873;52.236;21.002;2023-08-06T10:11:05;7.60;;;6.60;;
17261;SDS011;9873;52.236;21.002;2023-08-06T10:21:10;10.88;;;6.70;;
17261;SDS011;9873;52.236;21.002;2023-08-06T10:31:18;6.63;;;5.68;;
17261;SDS011;9873;52.236;21.002;2023-08-06T10:41:29;10.35;;;5.90;;
17261;SDS011;9873;52.236;21.002;2023-08-06T10:51:33;8.00;;;5.30;;
17261;SDS011;9873;52.236;21.002;2023-08-06T11:01:37;6.40;;;5.03;;
17261;SDS011;9873;52.236;21.002;2023-08-06T11:11:40;5.38;;;4.88;;
17261;SDS011;9873;52.236;21.002;2023-08-06T11:21:47;5.93;;;5.45;;
17261;SDS011;9873;52.236;21.002;2023-08-06T11:31:49;6.75;;;6.15;;
17261;SDS011;9873;52.236;21.002;2023-08-06T11:41:54;7.13;;;5.13;;
17261;SDS011;9873;52.236;21.002;2023-08-06T11:52:07;10.30;;;5.40;;
17261;SDS011;9873;52.236;21.002;2023-08-06T12:02:21;6.60;;;5.07;;
17261;SDS011;9873;52.236;21.002;2023-08-06T12:12:25;6.22;;;5.15;;
17261;SDS011;9873;52.236;21.002;2023-08-06T12:22:30;6.18;;;5.68;;
17261;SDS011;9873;52.236;21.002;2023-08-06T12:32:37;6.35;;;5.80;;
17261;SDS011;9873;52.236;21.002;2023-08-06T12:42:44;7.20;;;6.50;;
17261;SDS011;9873;52.236;21.002;2023-08-06T12:52:49;7.28;;;6.30;;
17261;SDS011;9873;52.236;21.002;2023-08-06T13:02:54;7.55;;;6.00;;
17261;SDS011;9873;52.236;21.002;2023-08-06T13:12:59;6.53;;;5.40;;
17261;SDS011;9873;52.236;21.002;2023-08-06T13:23:04;8.48;;;6.20;;
17261;SDS011;9873;52.236;21.002;2023-08-06T13:33:06;7.20;;;6.00;;
17261;SDS011;9873;52.236;21.002;2023-08-06T13:43:12;5.97;;;5.38;;
17261;SDS011;9873;52.236;21.002;2023-08-06T13:53:16;5.93;;;5.32;;
17261;SDS011;9873;52.236;21.002;2023-08-06T14:03:19;5.00;;;4.50;;
17261;SDS011;9873;52.236;21.002;2023-08-06T14:13:23;5.38;;;4.88;;
17261;SDS011;9873;52.236;21.002;2023-08-06T14:23:26;5.53;;;4.57;;
17261;SDS011;9873;52.236;21.002;2023-08-06T14:33:31;4.68;;;4.28;;
17261;SDS011;9873;52.236;21.002;2023-08-06T14:43:33;5.10;;;4.07;;
17261;SDS011;9873;52.236;21.002;2023-08-06T14:53:38;3.60;;;3.28;;
17261;SDS011;9873;52.236;21.002;2023-08-06T15:03:44;3.95;;;3.00;;
17261;SDS011;9873;52.236;21.002;2023-08-06T15:13:47;4.75;;;3.65;;
17261;SDS011;9873;52.236;21.002;2023-08-06T15:23:49;2.72;;;2.53;;
17261;SDS011;9873;52.236;21.002;2023-08-06T15:33:54;3.95;;;2.80;;
17261;SDS011;9873;52.236;21.002;2023-08-06T15:43:59;2.22;;;1.90;;
17261;SDS011;9873;52.236;21.002;2023-08-06T15:54:04;1.95;;;1.73;;
17261;SDS011;9873;52.236;21.002;2023-08-06T16:04:08;2.33;;;1.33;;
17261;SDS011;9873;52.236;21.002;2023-08-06T16:14:15;1.20;;;1.10;;
17261;SDS011;9873;52.236;21.002;2023-08-06T16:24:20;1.65;;;1.35;;
17261;SDS011;9873;52.236;21.002;2023-08-06T16:34:25;2.53;;;1.55;;
17261;SDS011;9873;52.236;21.002;2023-08-06T16:44:29;1.30;;;1.20;;
17261;SDS011;9873;52.236;21.002;2023-08-06T16:54:33;1.00;;;0.90;;
17261;SDS011;9873;52.236;21.002;2023-08-06T17:04:37;1.35;;;1.20;;
17261;SDS011;9873;52.236;21.002;2023-08-06T17:14:39;2.47;;;1.38;;
17261;SDS011;9873;52.236;21.002;2023-08-06T17:24:42;1.63;;;1.45;;
17261;SDS011;9873;52.236;21.002;2023-08-06T17:34:44;1.40;;;1.30;;
17261;SDS011;9873;52.236;21.002;2023-08-06T17:44:51;4.82;;;3.20;;
17261;SDS011;9873;52.236;21.002;2023-08-06T17:55:00;3.55;;;2.97;;
17261;SDS011;9873;52.236;21.002;2023-08-06T18:05:03;3.63;;;3.33;;
17261;SDS011;9873;52.236;21.002;2023-08-06T18:15:11;2.95;;;2.75;;
17261;SDS011;9873;52.236;21.002;2023-08-06T18:25:13;3.65;;;3.35;;
17261;SDS011;9873;52.236;21.002;2023-08-06T18:35:18;3.97;;;3.05;;
17261;SDS011;9873;52.236;21.002;2023-08-06T18:45:21;3.17;;;2.80;;
17261;SDS011;9873;52.236;21.002;2023-08-06T18:55:29;3.13;;;2.83;;
17261;SDS011;9873;52.236;21.002;2023-08-06T19:05:37;3.60;;;2.75;;
17261;SDS011;9873;52.236;21.002;2023-08-06T19:15:46;3.63;;;2.30;;
17261;SDS011;9873;52.236;21.002;2023-08-06T19:25:48;2.40;;;1.65;;
17261;SDS011;9873;52.236;21.002;2023-08-06T19:35:51;2.25;;;1.88;;
17261;SDS011;9873;52.236;21.002;2023-08-06T19:45:56;2.05;;;1.60;;
17261;SDS011;9873;52.236;21.002;2023-08-06T19:56:00;2.88;;;1.00;;
17261;SDS011;9873;52.236;21.002;2023-08-06T20:06:04;0.95;;;0.85;;
17261;SDS011;9873;52.236;21.002;2023-08-06T20:16:07;1.10;;;0.93;;
17261;SDS011;9873;52.236;21.002;2023-08-06T20:26:12;1.13;;;0.77;;
17261;SDS011;9873;52.236;21.002;2023-08-06T20:36:15;1.35;;;0.95;;
17261;SDS011;9873;52.236;21.002;2023-08-06T20:46:20;1.63;;;0.60;;
17261;SDS011;9873;52.236;21.002;2023-08-06T20:56:22;0.98;;;0.57;;
17261;SDS011;9873;52.236;21.002;2023-08-06T21:06:29;0.98;;;0.63;;
17261;SDS011;9873;52.236;21.002;2023-08-06T21:16:34;1.65;;;0.70;;
17261;SDS011;9873;52.236;21.002;2023-08-06T21:26:37;1.63;;;0.90;;
17261;SDS011;9873;52.236;21.002;2023-08-06T21:36:44;3.10;;;1.05;;
17261;SDS011;9873;52.236;21.002;2023-08-06T21:47:11;1.88;;;0.90;;
17261;SDS011;9873;52.236;21.002;2023-08-06T21:57:28;1.52;;;0.80;;
17261;SDS011;9873;52.236;21.002;2023-08-06T22:07:32;0.95;;;0.60;;
17261;SDS011;9873;52.236;21.002;2023-08-06T22:17:39;0.80;;;0.80;;
17261;SDS011;9873;52.236;21.002;2023-08-06T22:27:42;0.93;;;0.57;;
17261;SDS011;9873;52.236;21.002;2023-08-06T22:37:47;0.90;;;0.50;;
17261;SDS011;9873;52.236;21.002;2023-08-06T22:47:54;2.88;;;0.65;;
17261;SDS011;9873;52.236;21.002;2023-08-06T22:58:01;1.30;;;0.60;;
17261;SDS011;9873;52.236;21.002;2023-08-06T23:08:03;3.60;;;0.57;;
17261;SDS011;9873;52.236;21.002;2023-08-06T23:18:06;0.75;;;0.63;;
17261;SDS011;9873;52.236;21.002;2023-08-06T23:28:09;0.95;;;0.60;;
17261;SDS011;9873;52.236;21.002;2023-08-06T23:38:12;0.77;;;0.68;;
17261;SDS011;9873;52.236;21.002;2023-08-06T23:48:14;0.80;;;0.80;;
17261;SDS011;9873;52.236;21.002;2023-08-06T23:58:17;1.70;;;0.82;;
